createdAt,value
2023-04-16T00:01:03.930Z,9.20
2023-04-16T00:03:32.301Z,9.10
2023-04-16T00:06:00.737Z,9.10
2023-04-16T00:08:28.841Z,9.00
2023-04-16T00:10:57.103Z,8.90
2023-04-16T00:13:26.176Z,8.90
2023-04-16T00:15:55.665Z,8.90
2023-04-16T00:18:23.775Z,8.80
2023-04-16T00:20:53.564Z,8.80
2023-04-16T00:23:21.912Z,8.80
2023-04-16T00:25:50.049Z,8.80
2023-04-16T00:28:18.371Z,8.70
2023-04-16T00:30:46.615Z,8.80
2023-04-16T00:33:17.066Z,8.80
2023-04-16T00:35:46.934Z,8.70
2023-04-16T00:38:15.380Z,8.70
2023-04-16T00:40:43.509Z,8.70
2023-04-16T00:43:11.702Z,8.60
2023-04-16T00:45:40.024Z,8.70
2023-04-16T00:48:08.234Z,8.70
2023-04-16T00:50:37.787Z,8.60
2023-04-16T00:53:07.266Z,8.60
2023-04-16T00:55:35.835Z,8.60
2023-04-16T00:58:05.024Z,8.60
2023-04-16T01:00:33.225Z,8.60
2023-04-16T01:03:01.549Z,8.60
2023-04-16T01:05:29.841Z,8.60
2023-04-16T01:08:01.797Z,8.70
2023-04-16T01:10:29.962Z,8.80
2023-04-16T01:12:58.172Z,8.70
2023-04-16T01:15:26.354Z,8.70
2023-04-16T01:17:54.545Z,8.70
2023-04-16T01:20:22.939Z,8.70
2023-04-16T01:22:52.486Z,8.60
2023-04-16T01:25:20.749Z,8.60
2023-04-16T01:27:50.894Z,8.70
2023-04-16T01:30:19.474Z,8.70
2023-04-16T01:32:48.068Z,8.80
2023-04-16T01:35:18.320Z,8.70
2023-04-16T01:37:46.563Z,8.70
2023-04-16T01:40:16.387Z,8.70
2023-04-16T01:42:44.688Z,8.70
2023-04-16T01:45:13.398Z,8.60
2023-04-16T01:47:41.986Z,8.80
2023-04-16T01:50:11.236Z,8.70
2023-04-16T01:52:39.385Z,8.70
2023-04-16T01:55:08.284Z,8.80
2023-04-16T01:57:37.854Z,8.80
2023-04-16T02:00:07.393Z,8.80
2023-04-16T02:02:36.294Z,8.80
2023-04-16T02:05:04.817Z,8.80
2023-04-16T02:07:33.037Z,8.90
2023-04-16T02:10:01.299Z,8.90
2023-04-16T02:12:29.604Z,8.90
2023-04-16T02:14:59.128Z,8.90
2023-04-16T02:17:27.341Z,8.90
2023-04-16T02:19:55.554Z,8.90
2023-04-16T02:22:23.761Z,8.80
2023-04-16T02:24:54.908Z,8.80
2023-04-16T02:27:23.026Z,8.80
2023-04-16T02:29:51.243Z,8.80
2023-04-16T02:32:21.068Z,8.90
2023-04-16T02:34:49.282Z,8.90
2023-04-16T02:37:17.429Z,8.90
2023-04-16T02:39:46.440Z,8.80
2023-04-16T02:42:16.142Z,8.90
2023-04-16T02:44:44.402Z,9.00
2023-04-16T02:47:12.502Z,9.00
2023-04-16T02:49:42.019Z,8.90
2023-04-16T02:52:10.272Z,8.90
2023-04-16T02:54:38.391Z,8.80
2023-04-16T02:57:06.964Z,8.80
2023-04-16T02:59:35.088Z,8.80
2023-04-16T03:02:03.263Z,8.70
2023-04-16T03:04:31.502Z,8.70
2023-04-16T03:07:01.082Z,8.70
2023-04-16T03:09:29.232Z,8.80
2023-04-16T03:11:57.374Z,8.80
2023-04-16T03:14:25.516Z,8.80
2023-04-16T03:16:53.594Z,8.80
2023-04-16T03:19:21.722Z,8.90
2023-04-16T03:21:49.926Z,8.90
2023-04-16T03:24:19.534Z,8.80
2023-04-16T03:26:47.662Z,8.80
2023-04-16T03:29:15.801Z,8.80
2023-04-16T03:31:43.934Z,8.80
2023-04-16T03:34:12.168Z,8.80
2023-04-16T03:36:40.369Z,8.80
2023-04-16T03:39:08.894Z,8.70
2023-04-16T03:41:38.873Z,8.80
2023-04-16T03:44:07.034Z,8.80
2023-04-16T03:46:35.186Z,8.70
2023-04-16T03:49:03.427Z,8.80
2023-04-16T03:51:31.540Z,8.80
2023-04-16T03:53:59.759Z,8.80
2023-04-16T03:56:27.914Z,8.80
2023-04-16T03:58:57.415Z,8.80
2023-04-16T04:01:25.554Z,8.80
2023-04-16T04:03:53.919Z,8.90
2023-04-16T04:06:22.147Z,8.90
2023-04-16T04:08:50.493Z,8.80
2023-04-16T04:11:18.858Z,8.80
2023-04-16T04:13:47.147Z,8.90
2023-04-16T04:16:16.691Z,8.80
2023-04-16T04:18:44.882Z,8.90
2023-04-16T04:21:13.294Z,8.90
2023-04-16T04:23:42.523Z,8.90
2023-04-16T04:26:10.752Z,8.90
2023-04-16T04:28:38.898Z,8.90
2023-04-16T04:31:07.048Z,8.90
2023-04-16T04:33:36.741Z,8.80
2023-04-16T04:36:05.038Z,8.90
2023-04-16T04:38:33.265Z,8.90
2023-04-16T04:41:01.526Z,9.00
2023-04-16T04:43:29.706Z,8.90
2023-04-16T04:45:57.920Z,8.90
2023-04-16T04:48:26.826Z,8.90
2023-04-16T04:50:56.481Z,8.80
2023-04-16T04:53:24.581Z,8.80
2023-04-16T04:55:55.609Z,8.70
2023-04-16T04:58:26.711Z,8.80
2023-04-16T05:00:54.867Z,8.80
2023-04-16T05:03:23.414Z,8.80
2023-04-16T05:05:51.621Z,8.70
2023-04-16T05:08:21.184Z,8.70
2023-04-16T05:10:49.468Z,8.80
2023-04-16T05:13:17.570Z,8.80
2023-04-16T05:15:45.856Z,8.90
2023-04-16T05:18:14.020Z,8.90
2023-04-16T05:20:42.162Z,8.90
2023-04-16T05:23:10.314Z,9.00
2023-04-16T05:25:39.908Z,9.00
2023-04-16T05:28:08.120Z,8.90
2023-04-16T05:30:36.267Z,8.90
2023-04-16T05:33:04.500Z,9.00
2023-04-16T05:35:32.604Z,8.90
2023-04-16T05:38:00.771Z,8.90
2023-04-16T05:40:28.949Z,8.90
2023-04-16T05:42:58.516Z,8.90
2023-04-16T05:45:28.053Z,8.90
2023-04-16T05:47:56.451Z,8.90
2023-04-16T05:50:24.546Z,8.90
2023-04-16T05:52:52.656Z,8.90
2023-04-16T05:55:21.149Z,8.90
2023-04-16T05:57:49.321Z,8.90
2023-04-16T06:00:19.320Z,8.80
2023-04-16T06:02:47.590Z,8.80
2023-04-16T06:05:15.874Z,8.90
2023-04-16T06:07:44.053Z,8.90
2023-04-16T06:10:12.508Z,8.90
2023-04-16T06:12:40.847Z,8.80
2023-04-16T06:15:10.599Z,8.70
2023-04-16T06:17:40.207Z,8.70
2023-04-16T06:20:09.511Z,8.60
2023-04-16T06:22:37.846Z,8.60
2023-04-16T06:25:06.836Z,8.60
2023-04-16T06:27:35.013Z,8.60
2023-04-16T06:30:03.182Z,8.50
2023-04-16T06:32:31.844Z,8.50
2023-04-16T06:35:01.403Z,8.50
2023-04-16T06:37:29.552Z,8.50
2023-04-16T06:39:57.641Z,8.60
2023-04-16T06:42:25.735Z,8.60
2023-04-16T06:44:53.886Z,8.60
2023-04-16T06:47:22.106Z,8.60
2023-04-16T06:49:50.372Z,8.50
2023-04-16T06:52:19.883Z,8.50
2023-04-16T06:54:49.290Z,8.40
2023-04-16T06:57:17.447Z,8.40
2023-04-16T06:59:45.565Z,8.50
2023-04-16T07:02:13.919Z,8.40
2023-04-16T07:04:42.062Z,8.40
2023-04-16T07:07:10.195Z,8.50
2023-04-16T07:09:39.756Z,8.60
2023-04-16T07:12:08.379Z,8.50
2023-04-16T07:14:36.488Z,8.50
2023-04-16T07:17:04.626Z,8.60
2023-04-16T07:19:33.315Z,8.60
2023-04-16T07:22:01.515Z,8.70
2023-04-16T07:24:29.710Z,8.80
2023-04-16T07:26:59.249Z,8.80
2023-04-16T07:29:27.373Z,8.80
2023-04-16T07:31:55.674Z,8.80
2023-04-16T07:34:23.811Z,8.80
2023-04-16T07:36:52.076Z,8.90
2023-04-16T07:39:20.409Z,8.80
2023-04-16T07:41:48.563Z,8.90
2023-04-16T07:44:18.388Z,8.90
2023-04-16T07:46:47.638Z,8.90
2023-04-16T07:49:16.425Z,8.80
2023-04-16T07:51:44.605Z,8.80
2023-04-16T07:54:12.760Z,8.80
2023-04-16T07:56:41.056Z,8.90
2023-04-16T07:59:22.132Z,9.00
2023-04-16T08:01:54.648Z,9.00
2023-04-16T08:04:25.431Z,9.10
2023-04-16T08:06:53.843Z,9.10
2023-04-16T08:09:25.109Z,9.10
2023-04-16T08:11:53.338Z,9.20
2023-04-16T08:14:21.815Z,9.20
2023-04-16T08:16:53.122Z,9.10
2023-04-16T08:19:21.522Z,9.00
2023-04-16T08:21:50.250Z,9.00
2023-04-16T08:24:18.351Z,9.20
2023-04-16T08:26:46.513Z,9.20
2023-04-16T08:29:14.616Z,9.20
2023-04-16T08:31:43.254Z,9.20
2023-04-16T08:34:12.788Z,9.20
2023-04-16T08:36:41.967Z,9.30
2023-04-16T08:39:10.395Z,9.30
2023-04-16T08:41:42.042Z,9.20
2023-04-16T08:44:12.391Z,9.00
2023-04-16T08:46:42.815Z,9.00
2023-04-16T08:49:18.028Z,9.00
2023-04-16T08:51:52.369Z,9.10
2023-04-16T08:54:33.376Z,9.10
2023-04-16T08:57:05.134Z,9.20
2023-04-16T08:59:33.649Z,9.20
2023-04-16T09:02:02.772Z,9.30
2023-04-16T09:04:33.737Z,9.30
2023-04-16T09:07:04.474Z,9.20
2023-04-16T09:09:34.684Z,9.30
2023-04-16T09:12:03.235Z,9.30
2023-04-16T09:14:31.941Z,9.30
2023-04-16T09:17:02.463Z,9.30
2023-04-16T09:19:32.108Z,9.20
2023-04-16T09:22:00.289Z,9.20
2023-04-16T09:24:29.747Z,9.20
2023-04-16T09:26:58.406Z,9.10
2023-04-16T09:29:36.297Z,9.10
2023-04-16T09:32:06.283Z,8.90
2023-04-16T09:34:36.816Z,8.90
2023-04-16T09:37:19.129Z,9.00
2023-04-16T09:39:56.776Z,9.00
2023-04-16T09:42:27.428Z,9.00
2023-04-16T09:44:59.467Z,9.10
2023-04-16T09:47:40.677Z,9.10
2023-04-16T09:50:12.814Z,9.30
2023-04-16T09:52:41.337Z,9.30
2023-04-16T09:55:09.779Z,9.30
2023-04-16T09:57:39.467Z,9.40
2023-04-16T10:00:09.149Z,9.40
2023-04-16T10:02:39.363Z,9.40
2023-04-16T10:05:09.986Z,9.40
2023-04-16T10:07:38.806Z,9.40
2023-04-16T10:10:08.081Z,9.30
2023-04-16T10:12:36.342Z,9.30
2023-04-16T10:15:05.048Z,9.20
2023-04-16T10:17:33.828Z,9.20
2023-04-16T10:20:02.724Z,9.10
2023-04-16T10:22:32.622Z,9.10
2023-04-16T10:25:01.102Z,9.10
2023-04-16T10:27:30.478Z,9.10
2023-04-16T10:29:59.167Z,9.10
2023-04-16T10:32:28.711Z,9.10
2023-04-16T10:34:57.172Z,9.10
2023-04-16T10:37:32.339Z,9.20
2023-04-16T10:40:00.856Z,9.20
2023-04-16T10:42:29.056Z,9.10
2023-04-16T10:45:00.789Z,9.10
2023-04-16T10:47:30.609Z,9.20
2023-04-16T10:49:59.698Z,9.30
2023-04-16T10:52:32.298Z,9.40
2023-04-16T10:55:02.041Z,9.30
2023-04-16T10:57:30.908Z,9.30
2023-04-16T10:59:59.423Z,9.40
2023-04-16T11:02:30.973Z,9.30
2023-04-16T11:04:59.327Z,9.30
2023-04-16T11:07:36.052Z,9.30
2023-04-16T11:10:06.349Z,9.30
2023-04-16T11:12:37.729Z,9.30
2023-04-16T11:15:07.881Z,9.30
2023-04-16T11:17:40.114Z,9.30
2023-04-16T11:20:19.603Z,9.40
2023-04-16T11:22:51.181Z,9.40
2023-04-16T11:25:23.063Z,9.50
2023-04-16T11:27:52.018Z,9.60
2023-04-16T11:30:28.915Z,9.60
2023-04-16T11:32:57.226Z,9.70
2023-04-16T11:35:25.657Z,9.70
2023-04-16T11:37:57.604Z,9.60
2023-04-16T11:40:26.117Z,9.60
2023-04-16T11:42:54.345Z,9.60
2023-04-16T11:45:22.516Z,9.70
2023-04-16T11:47:52.703Z,9.80
2023-04-16T11:50:22.826Z,9.90
2023-04-16T11:52:51.944Z,10.10
2023-04-16T11:55:21.914Z,10.20
2023-04-16T11:57:51.935Z,10.30
2023-04-16T12:00:23.080Z,10.30
2023-04-16T12:02:54.306Z,10.30
2023-04-16T12:05:33.978Z,10.30
2023-04-16T12:08:03.643Z,10.50
2023-04-16T12:10:36.057Z,10.60
2023-04-16T12:13:14.090Z,10.40
2023-04-16T12:15:48.933Z,10.30
2023-04-16T12:18:17.759Z,10.30
2023-04-16T12:20:46.818Z,10.30
2023-04-16T12:23:25.175Z,10.10
2023-04-16T12:25:54.847Z,10.10
2023-04-16T12:28:31.042Z,10.00
2023-04-16T12:30:59.238Z,10.00
2023-04-16T12:33:27.493Z,10.10
2023-04-16T12:35:55.846Z,10.10
2023-04-16T12:38:25.539Z,10.10
2023-04-16T12:40:57.266Z,10.00
2023-04-16T12:43:25.951Z,9.80
2023-04-16T12:45:54.199Z,9.90
2023-04-16T12:48:22.333Z,10.00
2023-04-16T12:50:50.469Z,9.90
2023-04-16T12:53:18.687Z,9.90
2023-04-16T12:55:46.831Z,9.90
2023-04-16T12:58:16.296Z,9.90
2023-04-16T13:00:44.401Z,9.90
2023-04-16T13:03:12.729Z,10.00
2023-04-16T13:05:41.538Z,10.00
2023-04-16T13:08:09.684Z,10.10
2023-04-16T13:10:38.196Z,10.10
2023-04-16T13:13:06.935Z,10.10
2023-04-16T13:15:36.547Z,10.20
2023-04-16T13:18:04.838Z,10.20
2023-04-16T13:20:34.150Z,10.10
2023-04-16T13:23:04.884Z,10.20
2023-04-16T13:25:33.272Z,10.10
2023-04-16T13:28:01.348Z,10.00
2023-04-16T13:30:30.139Z,10.00
2023-04-16T13:32:59.776Z,10.00
2023-04-16T13:35:28.394Z,10.00
2023-04-16T13:37:56.517Z,10.10
2023-04-16T13:40:24.682Z,10.00
2023-04-16T13:42:52.839Z,9.90
2023-04-16T13:45:21.476Z,9.80
2023-04-16T13:47:49.799Z,9.90
2023-04-16T13:50:19.559Z,9.90
2023-04-16T13:52:47.712Z,10.10
2023-04-16T13:55:19.056Z,10.10
2023-04-16T13:57:48.219Z,9.90
2023-04-16T14:00:17.421Z,10.10
2023-04-16T14:02:48.789Z,10.30
2023-04-16T14:05:19.417Z,10.30
2023-04-16T14:07:47.584Z,10.30
2023-04-16T14:10:15.705Z,10.30
2023-04-16T14:12:44.888Z,10.30
2023-04-16T14:15:14.884Z,10.20
2023-04-16T14:17:44.112Z,10.20
2023-04-16T14:20:14.076Z,10.10
2023-04-16T14:22:44.253Z,10.10
2023-04-16T14:25:12.356Z,10.10
2023-04-16T14:27:41.347Z,10.00
2023-04-16T14:30:10.223Z,10.10
2023-04-16T14:32:38.361Z,10.10
2023-04-16T14:35:08.426Z,10.10
2023-04-16T14:37:38.424Z,10.10
2023-04-16T14:40:09.979Z,10.10
2023-04-16T14:42:38.455Z,10.10
2023-04-16T14:45:08.069Z,10.20
2023-04-16T14:47:37.830Z,10.10
2023-04-16T14:50:07.083Z,10.20
2023-04-16T14:52:35.246Z,10.10
2023-04-16T14:55:03.424Z,10.10
2023-04-16T14:57:33.426Z,10.20
2023-04-16T15:00:01.620Z,10.40
2023-04-16T15:02:29.897Z,10.40
2023-04-16T15:04:58.178Z,10.30
2023-04-16T15:07:26.430Z,10.30
2023-04-16T15:09:54.551Z,10.20
2023-04-16T15:12:22.678Z,10.30
2023-04-16T15:14:52.144Z,10.30
2023-04-16T15:17:21.932Z,10.30
2023-04-16T15:19:52.139Z,10.30
2023-04-16T15:22:20.359Z,10.30
2023-04-16T15:24:48.477Z,10.20
2023-04-16T15:27:17.650Z,10.30
2023-04-16T15:29:46.750Z,10.30
2023-04-16T15:32:16.249Z,10.20
2023-04-16T15:34:44.550Z,10.20
2023-04-16T15:37:12.655Z,10.20
2023-04-16T15:39:40.817Z,10.10
2023-04-16T15:42:09.272Z,10.10
2023-04-16T15:44:37.434Z,10.10
2023-04-16T15:47:06.473Z,10.10
2023-04-16T15:49:36.117Z,10.20
2023-04-16T15:52:04.877Z,10.20
2023-04-16T15:54:33.046Z,10.20
2023-04-16T15:57:01.726Z,10.10
2023-04-16T15:59:30.088Z,10.10
2023-04-16T16:01:58.291Z,10.10
2023-04-16T16:04:28.185Z,10.20
2023-04-16T16:06:58.015Z,10.20
2023-04-16T16:09:26.994Z,10.20
2023-04-16T16:11:55.591Z,10.30
2023-04-16T16:14:23.961Z,10.30
2023-04-16T16:16:52.469Z,10.20
2023-04-16T16:19:20.641Z,10.30
2023-04-16T16:21:48.815Z,10.30
2023-04-16T16:24:18.458Z,10.20
2023-04-16T16:26:46.554Z,10.00
2023-04-16T16:29:14.852Z,9.90
2023-04-16T16:31:43.035Z,9.90
2023-04-16T16:34:19.909Z,9.90
2023-04-16T16:36:49.114Z,9.90
2023-04-16T16:39:18.782Z,10.00
2023-04-16T16:41:52.153Z,9.90
2023-04-16T16:44:20.666Z,10.00
2023-04-16T16:46:48.866Z,9.90
2023-04-16T16:49:17.994Z,10.00
2023-04-16T16:51:46.891Z,9.90
2023-04-16T16:54:15.565Z,10.00
2023-04-16T16:56:45.102Z,9.90
2023-04-16T16:59:13.419Z,9.90
2023-04-16T17:01:41.909Z,9.80
2023-04-16T17:04:10.286Z,9.80
2023-04-16T17:06:38.864Z,9.90
2023-04-16T17:09:07.268Z,9.90
2023-04-16T17:11:35.414Z,9.80
2023-04-16T17:14:04.955Z,9.80
2023-04-16T17:16:33.298Z,9.80
2023-04-16T17:19:01.590Z,9.90
2023-04-16T17:21:29.914Z,9.80
2023-04-16T17:23:58.237Z,9.90
2023-04-16T17:26:26.409Z,9.80
2023-04-16T17:28:54.555Z,9.90
2023-04-16T17:31:26.888Z,9.90
2023-04-16T17:33:55.333Z,9.80
2023-04-16T17:36:23.904Z,9.80
2023-04-16T17:38:51.995Z,9.70
2023-04-16T17:41:20.459Z,9.70
2023-04-16T17:43:49.981Z,9.60
2023-04-16T17:46:18.248Z,9.60
2023-04-16T17:48:48.956Z,9.70
2023-04-16T17:51:17.156Z,9.60
2023-04-16T17:53:45.430Z,9.70
2023-04-16T17:56:14.571Z,9.60
2023-04-16T17:58:42.717Z,9.60
2023-04-16T18:01:10.857Z,9.60
2023-04-16T18:03:42.083Z,9.60
2023-04-16T18:06:11.778Z,9.60
2023-04-16T18:08:39.906Z,9.50
2023-04-16T18:11:09.203Z,9.50
2023-04-16T18:13:37.345Z,9.50
2023-04-16T18:16:07.082Z,9.40
2023-04-16T18:18:35.441Z,9.40
2023-04-16T18:21:03.542Z,9.40
2023-04-16T18:23:33.258Z,9.40
2023-04-16T18:26:01.491Z,9.40
2023-04-16T18:28:29.660Z,9.40
2023-04-16T18:30:59.095Z,9.30
2023-04-16T18:33:50.053Z,9.30
2023-04-16T18:36:15.560Z,9.30
2023-04-16T18:38:59.531Z,9.20
2023-04-16T18:41:28.953Z,9.10
2023-04-16T18:43:57.396Z,9.10
2023-04-16T18:46:26.811Z,9.20
2023-04-16T18:48:54.971Z,9.20
2023-04-16T18:51:23.391Z,9.20
2023-04-16T18:53:52.880Z,9.20
2023-04-16T18:56:21.124Z,9.20
2023-04-16T18:58:49.450Z,9.10
2023-04-16T19:01:17.990Z,9.10
2023-04-16T19:03:46.522Z,9.20
2023-04-16T19:06:14.737Z,9.20
2023-04-16T19:08:42.965Z,9.20
2023-04-16T19:11:12.475Z,9.20
2023-04-16T19:13:40.641Z,9.20
2023-04-16T19:16:11.742Z,9.20
2023-04-16T19:18:40.267Z,9.20
2023-04-16T19:21:10.576Z,9.20
2023-04-16T19:23:38.713Z,9.10
2023-04-16T19:26:06.812Z,9.10
2023-04-16T19:28:36.623Z,9.20
2023-04-16T19:31:04.736Z,9.20
2023-04-16T19:33:32.803Z,9.10
2023-04-16T19:36:01.883Z,9.20
2023-04-16T19:38:31.861Z,9.10
2023-04-16T19:40:59.988Z,9.10
2023-04-16T19:43:30.734Z,9.10
2023-04-16T19:46:00.561Z,9.10
2023-04-16T19:48:28.855Z,9.10
2023-04-16T19:50:57.023Z,9.10
2023-04-16T19:53:25.474Z,9.20
2023-04-16T19:55:53.574Z,9.20
2023-04-16T19:58:21.765Z,9.20
2023-04-16T20:00:49.888Z,9.20
2023-04-16T20:03:19.428Z,9.20
2023-04-16T20:05:49.660Z,9.20
2023-04-16T20:08:17.866Z,9.20
2023-04-16T20:10:46.036Z,9.10
2023-04-16T20:13:15.233Z,9.10
2023-04-16T20:15:44.923Z,9.20
2023-04-16T20:18:13.749Z,9.20
2023-04-16T20:20:43.211Z,9.20
2023-04-16T20:23:11.417Z,9.20
2023-04-16T20:25:42.694Z,9.20
2023-04-16T20:28:11.256Z,9.30
2023-04-16T20:30:39.893Z,9.10
2023-04-16T20:33:08.278Z,9.10
2023-04-16T20:35:36.630Z,9.00
2023-04-16T20:38:06.140Z,9.00
2023-04-16T20:40:38.645Z,9.00
2023-04-16T20:43:10.386Z,9.00
2023-04-16T20:45:40.939Z,9.00
2023-04-16T20:48:09.478Z,9.00
2023-04-16T20:50:37.690Z,9.00
2023-04-16T20:53:07.165Z,9.00
2023-04-16T20:55:35.278Z,9.00
2023-04-16T20:58:03.459Z,8.90
2023-04-16T21:00:32.038Z,8.80
2023-04-16T21:03:00.533Z,8.90
2023-04-16T21:05:30.154Z,8.90
2023-04-16T21:07:58.315Z,8.90
2023-04-16T21:10:27.865Z,9.00
2023-04-16T21:12:55.983Z,9.00
2023-04-16T21:15:24.160Z,9.00
2023-04-16T21:17:52.340Z,9.10
2023-04-16T21:20:20.486Z,9.00
2023-04-16T21:22:48.624Z,8.90
2023-04-16T21:25:16.900Z,8.90
2023-04-16T21:27:46.412Z,8.90
2023-04-16T21:30:15.593Z,8.90
2023-04-16T21:32:43.955Z,9.00
2023-04-16T21:35:12.460Z,9.10
2023-04-16T21:37:40.645Z,9.00
2023-04-16T21:40:09.555Z,9.00
2023-04-16T21:42:39.984Z,9.10
2023-04-16T21:45:10.829Z,9.10
2023-04-16T21:47:39.323Z,9.10
2023-04-16T21:50:08.537Z,9.00
2023-04-16T21:52:40.472Z,9.00
2023-04-16T21:55:10.393Z,9.00
2023-04-16T21:57:38.638Z,9.10
2023-04-16T22:00:13.767Z,9.00
2023-04-16T22:02:43.126Z,9.00
2023-04-16T22:05:12.181Z,9.10
2023-04-16T22:07:40.547Z,9.10
2023-04-16T22:10:11.766Z,9.00
2023-04-16T22:12:41.101Z,9.10
2023-04-16T22:15:11.362Z,9.00
2023-04-16T22:17:39.741Z,9.00
2023-04-16T22:20:09.446Z,9.00
2023-04-16T22:22:37.612Z,8.90
2023-04-16T22:25:06.533Z,9.00
2023-04-16T22:27:35.204Z,9.00
2023-04-16T22:30:04.154Z,9.00
2023-04-16T22:32:34.216Z,8.90
2023-04-16T22:35:03.359Z,8.90
2023-04-16T22:37:31.427Z,8.90
2023-04-16T22:39:59.590Z,8.80
2023-04-16T22:42:28.285Z,8.80
2023-04-16T22:44:57.086Z,8.80
2023-04-16T22:47:25.358Z,8.90
2023-04-16T22:49:55.422Z,8.90
2023-04-16T22:52:23.683Z,8.90
2023-04-16T22:54:51.778Z,8.90
2023-04-16T22:57:22.820Z,8.90
2023-04-16T22:59:50.939Z,8.90
2023-04-16T23:02:19.165Z,8.90
2023-04-16T23:04:48.000Z,8.80
2023-04-16T23:07:17.649Z,8.90
2023-04-16T23:09:45.773Z,8.90
2023-04-16T23:12:13.901Z,8.90
2023-04-16T23:14:45.866Z,8.90
2023-04-16T23:17:14.827Z,8.90
2023-04-16T23:19:43.068Z,8.90
2023-04-16T23:22:11.178Z,8.90
2023-04-16T23:24:40.777Z,8.90
2023-04-16T23:27:08.852Z,8.90
2023-04-16T23:29:36.981Z,8.90
2023-04-16T23:32:05.342Z,9.00
2023-04-16T23:34:33.422Z,8.90
2023-04-16T23:37:01.577Z,8.90
2023-04-16T23:39:29.678Z,9.00
2023-04-16T23:41:59.236Z,8.90
2023-04-16T23:44:27.381Z,8.90
2023-04-16T23:46:55.555Z,8.90
2023-04-16T23:49:23.777Z,8.90
2023-04-16T23:51:51.916Z,8.90
2023-04-16T23:54:20.114Z,8.80
2023-04-16T23:56:48.311Z,8.80
2023-04-16T23:59:17.818Z,8.80
